^^
Your Local Weather - Clay, NY Station Historical Data
Daily Summary for September 21, 2017 Units:  English    Metric   Both
« Previous Day
Next Day »
Daily Weekly Monthly Yearly Custom
  High: Low: Average:
Temperature: 81.4 °F 58.5 °F 67.1 °F
Dew Point: 69.0 °F 56.8 °F 62 °F
Humidity: 95% 57% 85%
Wind Speed: 3.0mph 0.0mph 0.5mph
Wind Gust: 6.0mph - -
Wind- - West
Pressure: 30.07 in 29.98 in -
Precipitation: 0.00 in    
Historical Graphs
 
 
Tabular Data for September 21, 2017
Time Temperature Dew Point Pressure Wind Wind Speed Wind Gust Humidity Rainfall Rate (Hourly) solar
00:00 63.0 °F 60.6 °F 29.98 in Calm     92% 0.00 in 0 W/m2
00:06 62.8 °F 60.4 °F 29.98 in Calm     92% 0.00 in 0 W/m2
00:12 62.7 °F 60.3 °F 29.98 in Calm     92% 0.00 in 0 W/m2
00:18 62.7 °F 60.6 °F 29.98 in Calm     93% 0.00 in 0 W/m2
00:24 62.6 °F 60.5 °F 29.98 in Calm     93% 0.00 in 0 W/m2
00:30 62.4 °F 60.3 °F 29.98 in Calm     93% 0.00 in 0 W/m2
00:36 62.2 °F 60.2 °F 29.98 in Calm     93% 0.00 in 0 W/m2
00:42 62.0 °F 60.0 °F 29.98 in Calm     93% 0.00 in 0 W/m2
00:48 61.9 °F 59.9 °F 29.98 in Calm     93% 0.00 in 0 W/m2
00:54 61.9 °F 59.9 °F 29.98 in Calm     93% 0.00 in 0 W/m2
01:00 61.8 °F 59.8 °F 29.98 in Calm     93% 0.00 in 0 W/m2
01:06 61.7 °F 59.7 °F 29.98 in Calm     93% 0.00 in 0 W/m2
01:12 61.6 °F 59.6 °F 29.98 in Calm     93% 0.00 in 0 W/m2
01:18 61.4 °F 59.4 °F 29.98 in Calm     93% 0.00 in 0 W/m2
01:24 61.4 °F 59.4 °F 29.98 in Calm     93% 0.00 in 0 W/m2
01:30 61.3 °F 59.3 °F 29.98 in Calm     93% 0.00 in 0 W/m2
01:36 61.2 °F 59.2 °F 29.98 in Calm     93% 0.00 in 0 W/m2
01:42 61.0 °F 59.0 °F 29.98 in Calm     93% 0.00 in 0 W/m2
01:48 61.0 °F 59.0 °F 29.98 in Calm     93% 0.00 in 0 W/m2
01:54 60.9 °F 58.9 °F 29.98 in Calm     93% 0.00 in 0 W/m2
02:00 60.9 °F 58.9 °F 29.98 in Calm     93% 0.00 in 0 W/m2
02:06 60.7 °F 58.7 °F 29.99 in Calm     93% 0.00 in 0 W/m2
02:12 60.7 °F 58.7 °F 29.99 in Calm     93% 0.00 in 0 W/m2
02:18 60.5 °F 58.8 °F 29.99 in Calm     94% 0.00 in 0 W/m2
02:24 60.2 °F 58.5 °F 29.99 in Calm     94% 0.00 in 0 W/m2
02:30 60.0 °F 58.0 °F 29.99 in Calm     93% 0.00 in 0 W/m2
02:36 59.8 °F 58.1 °F 29.99 in Calm     94% 0.00 in 0 W/m2
02:42 59.8 °F 58.1 °F 29.99 in Calm     94% 0.00 in 0 W/m2
02:48 59.8 °F 58.1 °F 29.99 in Calm     94% 0.00 in 0 W/m2
02:54 59.8 °F 58.1 °F 29.99 in Calm     94% 0.00 in 0 W/m2
03:00 59.8 °F 58.1 °F 29.99 in Calm     94% 0.00 in 0 W/m2
03:06 59.6 °F 57.9 °F 29.99 in Calm     94% 0.00 in 0 W/m2
03:12 59.6 °F 57.9 °F 29.99 in Calm     94% 0.00 in 0 W/m2
03:18 59.5 °F 57.8 °F 29.99 in Calm     94% 0.00 in 0 W/m2
03:24 59.3 °F 57.6 °F 29.99 in Calm     94% 0.00 in 0 W/m2
03:30 59.2 °F 57.5 °F 29.99 in Calm     94% 0.00 in 0 W/m2
03:36 59.2 °F 57.5 °F 29.99 in Calm     94% 0.00 in 0 W/m2
03:42 59.3 °F 57.6 °F 29.99 in Calm     94% 0.00 in 0 W/m2
03:48 59.3 °F 57.6 °F 30.00 in Calm     94% 0.00 in 0 W/m2
03:54 59.1 °F 57.4 °F 30.00 in Calm     94% 0.00 in 0 W/m2
04:00 59.0 °F 57.3 °F 30.00 in Calm     94% 0.00 in 0 W/m2
04:06 59.0 °F 57.3 °F 30.00 in Calm     94% 0.00 in 0 W/m2
04:12 58.9 °F 57.2 °F 30.01 in Calm     94% 0.00 in 0 W/m2
04:18 58.7 °F 57.0 °F 30.01 in Calm     94% 0.00 in 0 W/m2
04:24 58.5 °F 56.8 °F 30.01 in Calm     94% 0.00 in 0 W/m2
04:30 58.6 °F 56.9 °F 30.01 in Calm     94% 0.00 in 0 W/m2
04:36 58.6 °F 56.9 °F 30.01 in Calm     94% 0.00 in 0 W/m2
04:42 58.7 °F 57.0 °F 30.01 in Calm     94% 0.00 in 0 W/m2
04:48 59.1 °F 57.4 °F 30.02 in Calm     94% 0.00 in 0 W/m2
04:54 59.3 °F 57.6 °F 30.02 in Calm     94% 0.00 in 0 W/m2
05:00 59.5 °F 57.8 °F 30.02 in Calm     94% 0.00 in 0 W/m2
05:06 59.9 °F 58.5 °F 30.03 in Calm     95% 0.00 in 0 W/m2
05:12 60.2 °F 58.5 °F 30.03 in Calm     94% 0.00 in 0 W/m2
05:18 60.4 °F 58.7 °F 30.04 in Calm     94% 0.00 in 0 W/m2
05:24 60.4 °F 58.7 °F 30.04 in Calm   1.0 mph 94% 0.00 in 0 W/m2
05:30 60.4 °F 58.7 °F 30.04 in Calm     94% 0.00 in 0 W/m2
05:36 60.4 °F 58.7 °F 30.04 in Calm     94% 0.00 in 0 W/m2
05:42 60.4 °F 58.7 °F 30.04 in Calm     94% 0.00 in 0 W/m2
05:48 60.5 °F 59.1 °F 30.04 in Calm     95% 0.00 in 0 W/m2
05:54 60.5 °F 59.1 °F 30.04 in Calm     95% 0.00 in 0 W/m2
06:00 60.5 °F 59.1 °F 30.04 in Calm     95% 0.00 in 0 W/m2
06:06 60.5 °F 59.1 °F 30.04 in Calm     95% 0.00 in 0 W/m2
06:12 60.5 °F 59.1 °F 30.04 in Calm     95% 0.00 in 0 W/m2
06:18 60.6 °F 59.2 °F 30.04 in Calm     95% 0.00 in 0 W/m2
06:24 60.6 °F 59.2 °F 30.05 in Calm     95% 0.00 in 0 W/m2
06:30 60.6 °F 59.2 °F 30.05 in Calm     95% 0.00 in 0 W/m2
06:36 60.6 °F 59.2 °F 30.05 in Calm     95% 0.00 in 0 W/m2
06:42 60.6 °F 59.2 °F 30.06 in Calm     95% 0.00 in 0 W/m2
06:48 60.6 °F 59.2 °F 30.06 in Calm     95% 0.00 in 0 W/m2
06:54 60.6 °F 59.2 °F 30.06 in Calm     95% 0.00 in 0 W/m2
07:00 60.6 °F 59.2 °F 30.06 in Calm     95% 0.00 in 5 W/m2
07:06 60.7 °F 59.3 °F 30.05 in Calm   1.0 mph 95% 0.00 in 7 W/m2
07:12 60.8 °F 59.4 °F 30.05 in Calm     95% 0.00 in 7 W/m2
07:18 60.9 °F 59.5 °F 30.05 in Calm     95% 0.00 in 11 W/m2
07:26 61.2 °F 59.8 °F 30.06 in Calm     95% 0.00 in 11 W/m2
07:32 61.3 °F 59.9 °F 30.06 in Calm     95% 0.00 in 14 W/m2
07:38 61.5 °F 60.1 °F 30.05 in West 1.0 mph 1.0 mph 95% 0.00 in 18 W/m2
07:44 61.7 °F 60.3 °F 30.05 in West 1.0 mph 1.0 mph 95% 0.00 in 26 W/m2
07:50 61.8 °F 60.4 °F 30.05 in Calm     95% 0.00 in 33 W/m2
07:56 62.0 °F 60.6 °F 30.06 in Calm     95% 0.00 in 35 W/m2
08:02 62.1 °F 60.7 °F 30.06 in Calm     95% 0.00 in 49 W/m2
08:08 62.3 °F 60.8 °F 30.05 in Calm     95% 0.00 in 53 W/m2
08:14 62.6 °F 61.1 °F 30.05 in Calm     95% 0.00 in 62 W/m2
08:20 62.7 °F 61.2 °F 30.05 in Calm     95% 0.00 in 67 W/m2
08:26 62.8 °F 61.3 °F 30.05 in Calm   1.0 mph 95% 0.00 in 72 W/m2
08:32 62.9 °F 61.4 °F 30.05 in West 1.0 mph 1.0 mph 95% 0.00 in 74 W/m2
08:38 63.0 °F 61.5 °F 30.05 in West 1.0 mph 2.0 mph 95% 0.00 in 90 W/m2
08:44 63.1 °F 61.6 °F 30.05 in West 1.0 mph 1.0 mph 95% 0.00 in 90 W/m2
08:50 63.2 °F 61.7 °F 30.06 in Calm     95% 0.00 in 104 W/m2
08:56 63.3 °F 61.8 °F 30.06 in Calm     95% 0.00 in 118 W/m2
09:02 63.4 °F 61.9 °F 30.06 in Calm     95% 0.00 in 100 W/m2
09:08 63.4 °F 61.9 °F 30.06 in West 1.0 mph 2.0 mph 95% 0.00 in 100 W/m2
09:14 63.5 °F 62.0 °F 30.07 in West 2.0 mph 2.0 mph 95% 0.00 in 104 W/m2
09:20 63.6 °F 62.1 °F 30.07 in West 1.0 mph 1.0 mph 95% 0.00 in 113 W/m2
09:26 63.6 °F 62.1 °F 30.07 in West 1.0 mph 2.0 mph 95% 0.00 in 127 W/m2
09:32 63.5 °F 62.0 °F 30.07 in Calm     95% 0.00 in 123 W/m2
09:38 63.8 °F 62.3 °F 30.06 in Calm     95% 0.00 in 98 W/m2
09:44 64.0 °F 62.5 °F 30.07 in Calm     95% 0.00 in 63 W/m2
09:50 64.0 °F 62.5 °F 30.06 in Calm     95% 0.00 in 74 W/m2
09:56 64.0 °F 62.5 °F 30.06 in Calm   2.0 mph 95% 0.00 in 81 W/m2
10:02 64.0 °F 62.5 °F 30.06 in West 1.0 mph 3.0 mph 95% 0.00 in 135 W/m2
10:08 64.1 °F 62.6 °F 30.06 in West 1.0 mph 3.0 mph 95% 0.00 in 146 W/m2
10:14 64.2 °F 62.7 °F 30.06 in West 1.0 mph 1.0 mph 95% 0.00 in 130 W/m2
10:20 64.4 °F 62.9 °F 30.07 in Calm     95% 0.00 in 90 W/m2
10:26 64.5 °F 63.0 °F 30.07 in Calm   2.0 mph 95% 0.00 in 120 W/m2
10:32 64.5 °F 63.0 °F 30.07 in West 1.0 mph 2.0 mph 95% 0.00 in 188 W/m2
10:38 64.6 °F 63.1 °F 30.07 in West 1.0 mph 2.0 mph 95% 0.00 in 234 W/m2
10:44 64.8 °F 63.3 °F 30.06 in Calm   2.0 mph 95% 0.00 in 211 W/m2
10:50 64.9 °F 63.4 °F 30.05 in West 1.0 mph 1.0 mph 95% 0.00 in 186 W/m2
10:56 65.1 °F 63.6 °F 30.05 in Calm   1.0 mph 95% 0.00 in 192 W/m2
11:02 65.4 °F 63.9 °F 30.06 in West 1.0 mph 1.0 mph 95% 0.00 in 200 W/m2
11:08 65.6 °F 64.1 °F 30.06 in Calm   1.0 mph 95% 0.00 in 206 W/m2
11:14 65.9 °F 64.4 °F 30.06 in Calm   2.0 mph 95% 0.00 in 241 W/m2
11:20 66.3 °F 64.8 °F 30.06 in Calm     95% 0.00 in 264 W/m2
11:26 66.5 °F 65.0 °F 30.06 in West 1.0 mph 2.0 mph 95% 0.00 in 339 W/m2
11:32 67.0 °F 65.5 °F 30.06 in West 2.0 mph 3.0 mph 95% 0.00 in 380 W/m2
11:38 67.4 °F 65.9 °F 30.06 in SW 2.0 mph 4.0 mph 95% 0.00 in 436 W/m2
11:44 69.0 °F 67.5 °F 30.05 in SW 1.0 mph 2.0 mph 95% 0.00 in 740 W/m2
11:50 69.6 °F 66.5 °F 30.05 in SW 1.0 mph 1.0 mph 90% 0.00 in 703 W/m2
11:56 70.6 °F 66.5 °F 30.05 in SW 1.0 mph 1.0 mph 87% 0.00 in 366 W/m2
12:02 71.3 °F 66.6 °F 30.05 in WSW 1.0 mph 1.0 mph 85% 0.00 in 782 W/m2
12:08 71.9 °F 66.5 °F 30.05 in SW 1.0 mph 3.0 mph 83% 0.00 in 680 W/m2
12:14 72.7 °F 66.5 °F 30.05 in West 1.0 mph 2.0 mph 81% 0.00 in 740 W/m2
12:20 73.3 °F 67.5 °F 30.05 in WNW 2.0 mph 2.0 mph 82% 0.00 in 733 W/m2
12:26 74.3 °F 66.6 °F 30.05 in West 1.0 mph 2.0 mph 77% 0.00 in 740 W/m2
12:32 74.6 °F 66.9 °F 30.05 in West 1.0 mph 1.0 mph 77% 0.00 in 735 W/m2
12:38 75.2 °F 69.0 °F 30.05 in WSW 1.0 mph 2.0 mph 81% 0.00 in 731 W/m2
12:44 75.7 °F 67.6 °F 30.05 in WNW 1.0 mph 1.0 mph 76% 0.00 in 740 W/m2
12:50 76.6 °F 66.9 °F 30.05 in North 1.0 mph 2.0 mph 72% 0.00 in 751 W/m2
12:56 76.6 °F 66.9 °F 30.05 in West 2.0 mph 2.0 mph 72% 0.00 in 766 W/m2
13:02 77.3 °F 68.0 °F 30.05 in North 2.0 mph 2.0 mph 73% 0.00 in 752 W/m2
13:08 77.2 °F 67.1 °F 30.05 in NW 2.0 mph 2.0 mph 71% 0.00 in 742 W/m2
13:14 77.5 °F 67.8 °F 30.05 in NW 1.0 mph 2.0 mph 72% 0.00 in 758 W/m2
13:22 78.1 °F 66.7 °F 30.04 in NW 1.0 mph 1.0 mph 68% 0.00 in 761 W/m2
13:28 78.5 °F 68.3 °F 30.04 in North 1.0 mph 2.0 mph 71% 0.00 in 668 W/m2
13:34 78.2 °F 66.8 °F 30.04 in WSW 2.0 mph 5.0 mph 68% 0.00 in 714 W/m2
13:40 77.5 °F 66.5 °F 30.03 in SW 3.0 mph 3.0 mph 69% 0.00 in 766 W/m2
13:46 78.3 °F 67.3 °F 30.03 in SW 2.0 mph 3.0 mph 69% 0.00 in 770 W/m2
13:52 79.0 °F 66.7 °F 30.03 in NNE 2.0 mph 2.0 mph 66% 0.00 in 731 W/m2
13:58 79.0 °F 67.1 °F 30.03 in NW 2.0 mph 2.0 mph 67% 0.00 in 747 W/m2
14:04 79.2 °F 66.0 °F 30.03 in NW 1.0 mph 2.0 mph 64% 0.00 in 745 W/m2
14:10 79.8 °F 67.0 °F 30.03 in North 1.0 mph 1.0 mph 65% 0.00 in 733 W/m2
14:16 79.6 °F 65.4 °F 30.03 in West 2.0 mph 4.0 mph 62% 0.00 in 726 W/m2
14:22 80.1 °F 66.8 °F 30.02 in NNW 3.0 mph 3.0 mph 64% 0.00 in 729 W/m2
14:32 80.6 °F 67.7 °F 30.02 in NW 1.0 mph 2.0 mph 65% 0.00 in 719 W/m2
14:38 80.4 °F 67.6 °F 30.02 in NNE 2.0 mph 4.0 mph 65% 0.00 in 656 W/m2
14:44 80.9 °F 67.1 °F 30.02 in WNW 2.0 mph 2.0 mph 63% 0.00 in 698 W/m2
14:50 80.4 °F 66.2 °F 30.02 in NW 1.0 mph 1.0 mph 62% 0.00 in 443 W/m2
14:56 80.6 °F 65.9 °F 30.02 in NNW 2.0 mph 2.0 mph 61% 0.00 in 671 W/m2
15:02 81.3 °F 68.9 °F 30.02 in North 1.0 mph 2.0 mph 66% 0.00 in 621 W/m2
15:08 81.1 °F 66.4 °F 30.02 in SW 1.0 mph 2.0 mph 61% 0.00 in 631 W/m2
15:14 81.4 °F 67.1 °F 30.02 in NNW 1.0 mph 1.0 mph 62% 0.00 in 605 W/m2
15:20 81.2 °F 65.5 °F 30.01 in NNE 1.0 mph 4.0 mph 59% 0.00 in 633 W/m2
15:26 81.2 °F 66.0 °F 30.01 in North 2.0 mph 6.0 mph 60% 0.00 in 619 W/m2
15:32 80.7 °F 64.1 °F 30.00 in NNE 2.0 mph 5.0 mph 57% 0.00 in 594 W/m2
15:38 80.7 °F 64.1 °F 30.00 in NNW 2.0 mph 5.0 mph 57% 0.00 in 524 W/m2
15:44 80.4 °F 63.8 °F 30.00 in NW 1.0 mph 2.0 mph 57% 0.00 in 360 W/m2
15:50 79.6 °F 64.5 °F 30.00 in NNW 1.0 mph 2.0 mph 60% 0.00 in 396 W/m2
15:56 80.1 °F 66.8 °F 30.00 in NNW 1.0 mph 2.0 mph 64% 0.00 in 308 W/m2
16:02 80.0 °F 63.9 °F 30.00 in NNW 1.0 mph 2.0 mph 58% 0.00 in 432 W/m2
16:08 80.2 °F 66.0 °F 30.00 in NNW 1.0 mph 2.0 mph 62% 0.00 in 396 W/m2
16:14 80.5 °F 64.9 °F 30.00 in Calm   2.0 mph 59% 0.00 in 425 W/m2
16:20 80.5 °F 64.9 °F 30.00 in NNW 1.0 mph 3.0 mph 59% 0.00 in 336 W/m2
16:26 80.0 °F 64.9 °F 30.00 in NNE 2.0 mph 3.0 mph 60% 0.00 in 383 W/m2
16:32 80.4 °F 66.6 °F 30.00 in NNW 1.0 mph 2.0 mph 63% 0.00 in 445 W/m2
16:38 80.7 °F 66.5 °F 30.00 in NNE 2.0 mph 4.0 mph 62% 0.00 in 413 W/m2
16:44 80.6 °F 64.9 °F 30.01 in North 2.0 mph 2.0 mph 59% 0.00 in 350 W/m2
16:50 80.3 °F 65.6 °F 30.01 in NNW 1.0 mph 3.0 mph 61% 0.00 in 308 W/m2
16:56 80.2 °F 65.1 °F 30.01 in NW 1.0 mph 3.0 mph 60% 0.00 in 213 W/m2
17:02 79.5 °F 65.3 °F 30.01 in NW 1.0 mph 1.0 mph 62% 0.00 in 243 W/m2
17:08 79.3 °F 66.1 °F 30.01 in NW 1.0 mph 2.0 mph 64% 0.00 in 218 W/m2
17:14 78.8 °F 66.5 °F 30.02 in NW 2.0 mph 3.0 mph 66% 0.00 in 206 W/m2
17:20 78.2 °F 67.2 °F 30.02 in NNW 1.0 mph 1.0 mph 69% 0.00 in 181 W/m2
17:26 77.5 °F 66.5 °F 30.02 in NNW 1.0 mph 3.0 mph 69% 0.00 in 155 W/m2
17:32 76.9 °F 66.4 °F 30.02 in NW 2.0 mph 3.0 mph 70% 0.00 in 162 W/m2
17:38 76.6 °F 66.5 °F 30.02 in NW 1.0 mph 3.0 mph 71% 0.00 in 109 W/m2
17:44 76.2 °F 65.3 °F 30.03 in NNW 2.0 mph 4.0 mph 69% 0.00 in 111 W/m2
17:50 75.8 °F 65.3 °F 30.03 in NW 3.0 mph 3.0 mph 70% 0.00 in 97 W/m2
17:56 75.5 °F 65.0 °F 30.03 in NW 2.0 mph 3.0 mph 70% 0.00 in 93 W/m2
18:02 75.2 °F 65.1 °F 30.03 in NNW 1.0 mph 2.0 mph 71% 0.00 in 74 W/m2
18:08 74.8 °F 64.8 °F 30.03 in NNW 1.0 mph 3.0 mph 71% 0.00 in 62 W/m2
18:14 74.5 °F 64.1 °F 30.04 in NW 2.0 mph 5.0 mph 70% 0.00 in 49 W/m2
18:20 74.2 °F 64.2 °F 30.04 in NW 1.0 mph 1.0 mph 71% 0.00 in 42 W/m2
18:26 73.8 °F 64.2 °F 30.04 in Calm   1.0 mph 72% 0.00 in 39 W/m2
18:34 73.3 °F 63.7 °F 30.04 in Calm     72% 0.00 in 28 W/m2
18:40 72.9 °F 63.7 °F 30.03 in Calm     73% 0.00 in 35 W/m2
18:46 72.6 °F 63.8 °F 30.03 in Calm     74% 0.00 in 21 W/m2
18:52 72.2 °F 63.8 °F 30.04 in Calm     75% 0.00 in 14 W/m2
18:58 71.7 °F 63.7 °F 30.04 in Calm     76% 0.00 in 9 W/m2
19:04 71.2 °F 63.6 °F 30.04 in Calm     77% 0.00 in 5 W/m2
19:10 70.8 °F 63.6 °F 30.04 in Calm     78% 0.00 in 5 W/m2
19:16 70.4 °F 63.6 °F 30.04 in Calm     79% 0.00 in 0 W/m2
19:22 70.0 °F 63.5 °F 30.04 in Calm     80% 0.00 in 0 W/m2
19:28 69.6 °F 63.2 °F 30.04 in Calm     80% 0.00 in 0 W/m2
19:34 69.2 °F 62.8 °F 30.04 in Calm     80% 0.00 in 0 W/m2
19:40 68.9 °F 62.8 °F 30.04 in Calm     81% 0.00 in 0 W/m2
19:46 68.7 °F 62.6 °F 30.04 in Calm     81% 0.00 in 0 W/m2
19:52 68.4 °F 62.7 °F 30.04 in Calm   2.0 mph 82% 0.00 in 0 W/m2
19:58 68.3 °F 62.6 °F 30.04 in Calm     82% 0.00 in 0 W/m2
20:04 68.0 °F 62.3 °F 30.04 in Calm   2.0 mph 82% 0.00 in 0 W/m2
20:10 67.9 °F 62.2 °F 30.04 in Calm     82% 0.00 in 0 W/m2
20:16 67.7 °F 62.0 °F 30.04 in Calm     82% 0.00 in 0 W/m2
20:22 67.6 °F 61.9 °F 30.04 in Calm     82% 0.00 in 0 W/m2
20:28 67.3 °F 62.0 °F 30.04 in Calm     83% 0.00 in 0 W/m2
20:34 67.0 °F 61.7 °F 30.04 in Calm     83% 0.00 in 0 W/m2
20:40 66.7 °F 61.7 °F 30.04 in Calm     84% 0.00 in 0 W/m2
20:46 66.4 °F 61.4 °F 30.04 in Calm     84% 0.00 in 0 W/m2
20:52 66.1 °F 61.5 °F 30.04 in Calm     85% 0.00 in 0 W/m2
20:58 65.8 °F 61.2 °F 30.04 in Calm     85% 0.00 in 0 W/m2
21:04 65.5 °F 61.2 °F 30.04 in Calm     86% 0.00 in 0 W/m2
21:10 65.4 °F 61.4 °F 30.04 in Calm     87% 0.00 in 0 W/m2
21:16 65.1 °F 61.1 °F 30.04 in Calm     87% 0.00 in 0 W/m2
21:22 64.8 °F 60.8 °F 30.04 in Calm     87% 0.00 in 0 W/m2
21:28 64.6 °F 61.0 °F 30.05 in Calm     88% 0.00 in 0 W/m2
21:34 64.3 °F 60.7 °F 30.05 in Calm     88% 0.00 in 0 W/m2
21:40 64.1 °F 60.5 °F 30.05 in Calm     88% 0.00 in 0 W/m2
21:46 63.9 °F 60.6 °F 30.05 in Calm     89% 0.00 in 0 W/m2
21:52 63.7 °F 60.4 °F 30.05 in Calm     89% 0.00 in 0 W/m2
21:58 63.5 °F 60.2 °F 30.05 in Calm     89% 0.00 in 0 W/m2
22:04 63.3 °F 60.3 °F 30.05 in Calm     90% 0.00 in 0 W/m2
22:10 63.1 °F 60.1 °F 30.05 in Calm     90% 0.00 in 0 W/m2
22:16 62.7 °F 59.7 °F 30.05 in Calm     90% 0.00 in 0 W/m2
22:22 62.7 °F 59.7 °F 30.05 in Calm     90% 0.00 in 0 W/m2
22:28 62.6 °F 59.9 °F 30.06 in Calm     91% 0.00 in 0 W/m2
22:34 62.4 °F 59.7 °F 30.06 in Calm     91% 0.00 in 0 W/m2
22:40 62.3 °F 59.6 °F 30.06 in Calm     91% 0.00 in 0 W/m2
22:46 62.2 °F 59.5 °F 30.05 in Calm     91% 0.00 in 0 W/m2
22:52 62.1 °F 59.4 °F 30.06 in Calm     91% 0.00 in 0 W/m2
22:58 62.0 °F 59.3 °F 30.06 in Calm     91% 0.00 in 0 W/m2
23:04 61.9 °F 59.5 °F 30.05 in Calm     92% 0.00 in 0 W/m2
23:10 61.8 °F 59.5 °F 30.05 in Calm     92% 0.00 in 0 W/m2
23:16 61.6 °F 59.3 °F 30.05 in Calm     92% 0.00 in 0 W/m2
23:22 61.4 °F 59.1 °F 30.06 in Calm     92% 0.00 in 0 W/m2
23:28 61.3 °F 59.0 °F 30.05 in Calm     92% 0.00 in 0 W/m2
23:34 61.1 °F 58.8 °F 30.05 in Calm     92% 0.00 in 0 W/m2
23:40 61.1 °F 58.8 °F 30.05 in Calm     92% 0.00 in 0 W/m2
23:46 60.9 °F 58.6 °F 30.05 in Calm     92% 0.00 in 0 W/m2
23:52 60.6 °F 58.3 °F 30.05 in Calm     92% 0.00 in 0 W/m2
23:58 60.5 °F 58.2 °F 30.05 in Calm     92% 0.00 in 0 W/m2
Country Meadow, Clay, NY, USA
Compliments of Weather Underground - 2 mb